Time;durP1;ratioP1;P1;durP2;ratioP2;P2;SDS_P1;SDS_P2;PMS_P1;PMS_P2;Temp;Humidity;BMP_temperature;BMP_pressure;BME280_temperature;BME280_humidity;BME280_pressure;Samples;Min_cycle;Max_cycle;Signal;HPM_P1;HPM_P2
2021/01/09 00:02:24;;;;;;;1.40;0.30;;;1.70;99.90;;;;;;4997652;28;20637;-84
2021/01/09 00:04:49;;;;;;;0.40;0.40;;;1.80;99.90;;;;;;5005727;28;20188;-83
2021/01/09 00:07:16;;;;;;;1.13;0.87;;;1.90;99.90;;;;;;5010422;28;20725;-84
2021/01/09 00:09:41;;;;;;;0.30;0.30;;;1.90;99.90;;;;;;5008100;28;20172;-84
2021/01/09 00:12:11;;;;;;;0.63;0.63;;;1.90;99.90;;;;;;4999178;28;20246;-84
2021/01/09 00:14:37;;;;;;;0.60;0.60;;;1.90;99.90;;;;;;5004364;28;20796;-83
2021/01/09 00:17:03;;;;;;;0.73;0.33;;;2.00;99.90;;;;;;5003266;28;20663;-83
2021/01/09 00:19:29;;;;;;;1.33;0.30;;;2.00;99.90;;;;;;5005274;28;20191;-85
2021/01/09 00:21:55;;;;;;;0.33;0.33;;;2.10;99.90;;;;;;5001976;28;20219;-83
2021/01/09 00:24:21;;;;;;;1.47;0.50;;;2.10;99.90;;;;;;5008762;28;20213;-84
2021/01/09 00:26:46;;;;;;;0.97;0.57;;;2.20;99.90;;;;;;5003242;28;20183;-85
2021/01/09 00:29:12;;;;;;;0.40;0.33;;;2.10;99.90;;;;;;5011171;28;20247;-86
2021/01/09 00:31:38;;;;;;;0.40;0.40;;;2.00;99.90;;;;;;5005512;28;20212;-85
2021/01/09 00:34:04;;;;;;;0.40;0.40;;;2.10;99.90;;;;;;5021687;28;20269;-85
2021/01/09 00:36:30;;;;;;;0.23;0.23;;;2.20;99.90;;;;;;5016949;28;20559;-85
2021/01/09 00:38:55;;;;;;;0.57;0.10;;;2.30;99.90;;;;;;5019488;28;20194;-85
2021/01/09 00:41:31;;;;;;;0.30;0.30;;;2.30;99.90;;;;;;5008241;28;20209;-86
2021/01/09 00:43:58;;;;;;;0.40;0.40;;;2.30;99.90;;;;;;5002841;28;20215;-84
2021/01/09 00:46:24;;;;;;;0.60;0.60;;;2.30;99.90;;;;;;5003845;28;20631;-85
2021/01/09 00:48:49;;;;;;;5.33;0.63;;;2.20;99.90;;;;;;5009236;28;20280;-85
2021/01/09 00:51:16;;;;;;;0.20;0.20;;;2.20;99.90;;;;;;5015195;28;20683;-85
2021/01/09 00:53:42;;;;;;;0.83;0.30;;;2.40;99.90;;;;;;5017575;28;20328;-86
2021/01/09 00:56:08;;;;;;;0.73;0.40;;;2.50;99.90;;;;;;5010410;28;20207;-85
2021/01/09 00:58:34;;;;;;;0.37;0.30;;;2.40;99.90;;;;;;5014467;28;20190;-84
2021/01/09 01:01:00;;;;;;;0.10;0.10;;;2.40;99.90;;;;;;5003249;28;20187;-85
2021/01/09 01:03:27;;;;;;;0.10;0.10;;;2.30;99.90;;;;;;5014620;28;20260;-84
2021/01/09 01:05:53;;;;;;;0.00;0.00;;;2.20;99.90;;;;;;5004391;28;20190;-85
2021/01/09 01:08:18;;;;;;;0.10;0.10;;;2.10;99.90;;;;;;5008044;28;20187;-86
2021/01/09 01:10:45;;;;;;;0.33;0.33;;;2.10;99.90;;;;;;5012611;28;20184;-84
2021/01/09 01:13:10;;;;;;;0.20;0.20;;;2.20;99.90;;;;;;5009875;28;20206;-85
2021/01/09 01:15:36;;;;;;;0.50;0.50;;;2.10;99.90;;;;;;5002594;28;20695;-85
2021/01/09 01:18:01;;;;;;;0.50;0.50;;;2.10;99.90;;;;;;5010847;28;20683;-85
2021/01/09 01:20:27;;;;;;;0.90;0.50;;;2.10;99.90;;;;;;5013291;28;20645;-85
2021/01/09 01:22:53;;;;;;;1.77;1.17;;;2.00;99.90;;;;;;5015459;28;20223;-85
2021/01/09 01:25:18;;;;;;;0.13;0.13;;;2.00;99.90;;;;;;5030244;28;20209;-84
2021/01/09 01:27:44;;;;;;;0.70;0.40;;;2.10;99.90;;;;;;5005941;28;20184;-84
2021/01/09 01:30:09;;;;;;;0.10;0.10;;;2.00;99.90;;;;;;5011937;28;20191;-85
2021/01/09 01:32:35;;;;;;;0.57;0.57;;;2.20;99.90;;;;;;5017192;28;20380;-85
2021/01/09 01:35:01;;;;;;;0.43;0.27;;;2.20;99.90;;;;;;5004868;28;20179;-85
2021/01/09 01:37:27;;;;;;;0.50;0.50;;;2.10;99.90;;;;;;5001097;28;20196;-86
2021/01/09 01:39:55;;;;;;;0.60;0.50;;;2.20;99.90;;;;;;5015012;28;20208;-85
2021/01/09 01:42:20;;;;;;;0.33;0.33;;;2.30;99.90;;;;;;5005785;28;20215;-85
2021/01/09 01:44:46;;;;;;;0.20;0.20;;;2.30;99.90;;;;;;5003025;28;20183;-84
2021/01/09 01:47:17;;;;;;;0.67;0.40;;;2.30;99.90;;;;;;5000206;28;20278;-85
2021/01/09 01:49:46;;;;;;;0.93;0.73;;;2.30;99.90;;;;;;5011642;28;20214;-85
2021/01/09 01:52:13;;;;;;;0.27;0.27;;;2.30;99.90;;;;;;5004691;28;20321;-85
2021/01/09 01:54:41;;;;;;;0.40;0.33;;;2.40;99.90;;;;;;5004015;28;20278;-88
2021/01/09 01:57:09;;;;;;;0.30;0.27;;;2.50;99.90;;;;;;5008118;28;20183;-84
2021/01/09 01:59:36;;;;;;;0.40;0.40;;;2.40;99.90;;;;;;5011548;28;20219;-85
2021/01/09 02:02:04;;;;;;;0.20;0.20;;;2.50;99.90;;;;;;5015436;28;20207;-85
2021/01/09 02:04:30;;;;;;;0.87;0.40;;;2.50;99.90;;;;;;5006161;28;20183;-85
2021/01/09 02:06:58;;;;;;;1.30;1.07;;;2.40;99.90;;;;;;5016275;28;20187;-84
2021/01/09 02:09:27;;;;;;;0.30;0.30;;;2.30;99.90;;;;;;5017717;28;20176;-84
2021/01/09 02:12:07;;;;;;;0.27;0.13;;;2.40;99.90;;;;;;5011475;28;20207;-86
2021/01/09 02:14:45;;;;;;;0.57;0.37;;;2.30;99.90;;;;;;5011022;28;20190;-87
2021/01/09 02:17:12;;;;;;;0.10;0.10;;;2.40;99.90;;;;;;5006084;28;20718;-85
2021/01/09 02:19:40;;;;;;;0.10;0.10;;;2.50;99.90;;;;;;5008081;28;20183;-84
2021/01/09 02:22:10;;;;;;;1.10;0.83;;;2.60;99.90;;;;;;5011293;28;20212;-86
2021/01/09 02:24:35;;;;;;;0.30;0.30;;;2.70;99.90;;;;;;5017443;28;20310;-85
2021/01/09 02:27:03;;;;;;;0.43;0.40;;;2.70;99.90;;;;;;5005559;28;20200;-85
2021/01/09 02:29:32;;;;;;;0.43;0.43;;;2.70;99.90;;;;;;5019111;28;20214;-86
2021/01/09 02:32:00;;;;;;;0.23;0.23;;;2.60;99.90;;;;;;5008994;28;20747;-84
2021/01/09 02:34:47;;;;;;;4.70;0.37;;;2.60;99.90;;;;;;5018192;28;20187;-85
2021/01/09 02:37:13;;;;;;;0.50;0.50;;;2.70;99.90;;;;;;5010414;28;20195;-85
2021/01/09 02:39:39;;;;;;;0.10;0.10;;;2.60;99.90;;;;;;5009221;28;20198;-84
2021/01/09 02:42:05;;;;;;;0.13;0.13;;;2.70;99.90;;;;;;5008570;28;20231;-85
2021/01/09 02:44:31;;;;;;;0.40;0.40;;;2.50;99.90;;;;;;5010900;28;20194;-84
2021/01/09 02:46:58;;;;;;;1.40;0.47;;;2.60;99.90;;;;;;5009551;28;20187;-85
2021/01/09 02:49:26;;;;;;;0.60;0.60;;;2.50;99.90;;;;;;5010969;28;20187;-85
2021/01/09 02:51:51;;;;;;;0.33;0.33;;;2.50;99.90;;;;;;5006270;28;20245;-86
2021/01/09 02:54:17;;;;;;;0.80;0.80;;;2.40;99.90;;;;;;5020607;28;20206;-85
2021/01/09 02:56:42;;;;;;;0.60;0.60;;;2.40;99.90;;;;;;5013461;28;20195;-84
2021/01/09 02:59:08;;;;;;;1.37;0.63;;;2.40;99.90;;;;;;5016383;28;20190;-85
2021/01/09 03:01:34;;;;;;;0.53;0.53;;;2.30;99.90;;;;;;5020374;28;20203;-86
2021/01/09 03:03:59;;;;;;;0.50;0.50;;;2.00;99.90;;;;;;5012198;28;20206;-84
2021/01/09 03:06:25;;;;;;;0.10;0.10;;;2.00;99.90;;;;;;5009305;28;20269;-84
2021/01/09 03:08:52;;;;;;;1.30;0.17;;;2.10;99.90;;;;;;5015513;28;20234;-85
2021/01/09 03:11:18;;;;;;;0.50;0.50;;;2.00;99.90;;;;;;5001886;28;20269;-84
2021/01/09 03:13:44;;;;;;;0.93;0.87;;;2.10;99.90;;;;;;5006994;28;20188;-85
2021/01/09 03:16:10;;;;;;;0.60;0.60;;;2.00;99.90;;;;;;5011013;28;20717;-85
2021/01/09 03:18:35;;;;;;;0.77;0.77;;;1.90;99.90;;;;;;5007884;28;20239;-85
2021/01/09 03:21:01;;;;;;;1.23;1.10;;;1.90;99.90;;;;;;5015865;28;20202;-84
2021/01/09 03:23:26;;;;;;;0.97;0.97;;;1.90;99.90;;;;;;5012520;28;20214;-85
2021/01/09 03:25:52;;;;;;;0.97;0.33;;;2.00;99.90;;;;;;5032635;28;20552;-84
2021/01/09 03:28:18;;;;;;;0.70;0.70;;;2.00;99.90;;;;;;5019313;28;20536;-85
2021/01/09 03:30:43;;;;;;;0.87;0.87;;;2.00;99.90;;;;;;5015511;28;20190;-85
2021/01/09 03:33:09;;;;;;;0.07;0.07;;;2.20;99.90;;;;;;5005704;28;20200;-84
2021/01/09 03:35:35;;;;;;;0.67;0.63;;;2.20;99.90;;;;;;5017172;28;20191;-84
2021/01/09 03:38:00;;;;;;;1.00;0.73;;;2.10;99.90;;;;;;5004724;28;20184;-85
2021/01/09 03:40:26;;;;;;;1.13;1.03;;;2.10;99.90;;;;;;5010193;28;20563;-84
2021/01/09 03:42:51;;;;;;;0.80;0.80;;;2.00;99.90;;;;;;5006351;28;20218;-84
2021/01/09 03:45:17;;;;;;;1.47;0.80;;;2.00;99.90;;;;;;5010159;28;20195;-86
2021/01/09 03:47:43;;;;;;;0.40;0.40;;;1.90;99.90;;;;;;5008570;28;20195;-85
2021/01/09 03:50:08;;;;;;;0.10;0.10;;;1.90;99.90;;;;;;5000478;28;20184;-86
2021/01/09 03:52:34;;;;;;;1.13;0.87;;;2.00;99.90;;;;;;5002505;28;20218;-86
2021/01/09 03:54:59;;;;;;;1.90;0.73;;;2.00;99.90;;;;;;5002841;28;20191;-85
2021/01/09 03:57:26;;;;;;;1.23;0.93;;;2.00;99.90;;;;;;5015695;28;20569;-85
2021/01/09 03:59:52;;;;;;;2.10;0.77;;;1.90;99.90;;;;;;5004740;28;20698;-85
2021/01/09 04:02:17;;;;;;;0.40;0.40;;;2.00;99.90;;;;;;5013019;28;20211;-86
2021/01/09 04:04:43;;;;;;;0.57;0.30;;;1.90;99.90;;;;;;5005108;28;20187;-86
2021/01/09 04:07:08;;;;;;;0.30;0.27;;;1.90;99.90;;;;;;5011408;28;20574;-86
2021/01/09 04:09:34;;;;;;;1.30;1.20;;;1.90;99.90;;;;;;5012118;28;20188;-85
2021/01/09 04:12:00;;;;;;;0.17;0.17;;;1.70;99.90;;;;;;5004183;28;20204;-85
2021/01/09 04:14:25;;;;;;;0.20;0.20;;;1.80;99.90;;;;;;5007966;28;20222;-85
2021/01/09 04:16:52;;;;;;;0.37;0.37;;;1.80;99.90;;;;;;5006567;28;20242;-85
2021/01/09 04:19:18;;;;;;;0.13;0.10;;;1.70;99.90;;;;;;5004205;28;20274;-85
2021/01/09 04:21:54;;;;;;;0.30;0.30;;;1.70;99.90;;;;;;5011589;28;20242;-87
2021/01/09 04:24:24;;;;;;;0.37;0.30;;;1.70;99.90;;;;;;5016618;28;20202;-86
2021/01/09 04:27:00;;;;;;;0.17;0.17;;;1.70;99.90;;;;;;5016185;28;20207;-85
2021/01/09 04:29:26;;;;;;;0.47;0.47;;;1.80;99.90;;;;;;5003904;28;20207;-87
2021/01/09 04:31:53;;;;;;;0.50;0.40;;;1.80;99.90;;;;;;5014911;28;20210;-85
2021/01/09 04:34:19;;;;;;;0.20;0.20;;;1.90;99.90;;;;;;5015688;28;20191;-86
2021/01/09 04:36:45;;;;;;;0.40;0.40;;;2.00;99.90;;;;;;5012584;28;20198;-86
2021/01/09 04:39:14;;;;;;;0.40;0.40;;;2.00;99.90;;;;;;5010738;28;20192;-86
2021/01/09 04:41:40;;;;;;;0.50;0.50;;;2.10;99.90;;;;;;5004696;28;20282;-85
2021/01/09 04:44:07;;;;;;;0.50;0.50;;;2.10;99.90;;;;;;5008435;28;20294;-85
2021/01/09 04:46:53;;;;;;;0.20;0.20;;;2.10;99.90;;;;;;5006105;28;20191;-87
2021/01/09 04:49:21;;;;;;;0.20;0.20;;;2.20;99.90;;;;;;5003932;28;20191;-87
2021/01/09 04:51:48;;;;;;;0.33;0.27;;;2.10;99.90;;;;;;5010698;28;20207;-85
2021/01/09 04:54:16;;;;;;;0.50;0.50;;;2.10;99.90;;;;;;5014378;28;20210;-87
2021/01/09 04:56:48;;;;;;;0.30;0.30;;;2.10;99.90;;;;;;5002190;28;20200;-85
2021/01/09 04:59:15;;;;;;;0.33;0.33;;;2.20;99.90;;;;;;5012023;28;20567;-85
2021/01/09 05:01:42;;;;;;;0.50;0.50;;;2.10;99.90;;;;;;5016830;28;20277;-85
2021/01/09 05:04:08;;;;;;;0.43;0.40;;;2.00;99.90;;;;;;5017932;28;20235;-85
2021/01/09 05:06:34;;;;;;;0.23;0.23;;;2.00;99.90;;;;;;5005229;28;20183;-85
2021/01/09 05:08:59;;;;;;;0.60;0.43;;;2.10;99.90;;;;;;5008875;28;20601;-86
2021/01/09 05:11:25;;;;;;;0.10;0.10;;;2.00;99.90;;;;;;4998983;28;20246;-85
2021/01/09 05:13:51;;;;;;;2.07;1.10;;;2.00;99.90;;;;;;5010733;28;20201;-85
2021/01/09 05:16:17;;;;;;;0.20;0.20;;;2.10;99.90;;;;;;5007067;28;20259;-84
2021/01/09 05:18:43;;;;;;;0.53;0.53;;;2.10;99.90;;;;;;5009962;28;20636;-85
2021/01/09 05:21:12;;;;;;;0.80;0.40;;;2.20;99.90;;;;;;5007512;28;20192;-85
2021/01/09 05:23:58;;;;;;;0.20;0.20;;;2.20;99.90;;;;;;5012891;28;20635;-85
2021/01/09 05:26:24;;;;;;;0.40;0.40;;;2.20;99.90;;;;;;5011609;28;20186;-86
2021/01/09 05:28:53;;;;;;;0.10;0.10;;;2.10;99.90;;;;;;5009062;28;20180;-87
2021/01/09 05:31:21;;;;;;;0.70;0.50;;;2.20;99.90;;;;;;5009820;28;20203;-85
2021/01/09 05:33:49;;;;;;;0.33;0.33;;;2.20;99.90;;;;;;5004982;28;20323;-84
2021/01/09 05:36:15;;;;;;;0.33;0.23;;;2.10;99.90;;;;;;5003660;28;20199;-84
2021/01/09 05:38:44;;;;;;;0.73;0.37;;;2.20;99.90;;;;;;5007577;28;20256;-86
2021/01/09 05:41:11;;;;;;;0.30;0.20;;;2.30;99.90;;;;;;5012442;28;20187;-85
2021/01/09 05:43:37;;;;;;;0.80;0.80;;;2.20;99.90;;;;;;5002789;28;20209;-85
2021/01/09 05:46:05;;;;;;;0.80;0.40;;;2.20;99.90;;;;;;5005213;28;20191;-87
2021/01/09 05:48:32;;;;;;;0.83;0.40;;;2.20;99.90;;;;;;5010745;28;20715;-86
2021/01/09 05:51:02;;;;;;;0.87;0.60;;;2.30;99.90;;;;;;5013937;28;20574;-85
2021/01/09 05:53:41;;;;;;;0.10;0.10;;;2.30;99.90;;;;;;5009422;28;21958;-85
2021/01/09 05:56:09;;;;;;;0.20;0.20;;;2.30;99.90;;;;;;5017789;28;20180;-85
2021/01/09 05:58:35;;;;;;;1.10;0.50;;;2.30;99.90;;;;;;5018516;28;20186;-86
2021/01/09 06:01:05;;;;;;;0.10;0.10;;;2.40;99.90;;;;;;5013774;28;20187;-86
2021/01/09 06:03:42;;;;;;;0.33;0.33;;;2.40;99.90;;;;;;5009214;28;20207;-85
2021/01/09 06:06:22;;;;;;;1.03;0.83;;;2.50;99.90;;;;;;5013333;28;20296;-85
2021/01/09 06:08:53;;;;;;;0.30;0.30;;;2.30;99.90;;;;;;5015819;28;20175;-86
2021/01/09 06:11:28;;;;;;;0.30;0.30;;;2.30;99.90;;;;;;5010747;28;20199;-84
2021/01/09 06:13:58;;;;;;;1.33;0.40;;;2.40;99.90;;;;;;5005767;28;20188;-85
2021/01/09 06:16:25;;;;;;;0.30;0.30;;;2.30;99.90;;;;;;5004349;28;20183;-87
2021/01/09 06:18:51;;;;;;;0.10;0.10;;;2.20;99.90;;;;;;5008636;28;20198;-86
2021/01/09 06:21:17;;;;;;;1.50;0.30;;;2.00;99.90;;;;;;5013344;28;20188;-85
2021/01/09 06:23:43;;;;;;;0.10;0.10;;;2.00;99.90;;;;;;5008629;28;20306;-85
2021/01/09 06:26:14;;;;;;;0.33;0.33;;;1.90;99.90;;;;;;5012768;28;20210;-86
2021/01/09 06:28:58;;;;;;;0.20;0.20;;;1.90;99.90;;;;;;5013894;28;20189;-85
2021/01/09 06:31:25;;;;;;;0.40;0.37;;;1.80;99.90;;;;;;5005906;28;20218;-85
2021/01/09 06:33:54;;;;;;;0.23;0.23;;;1.70;99.90;;;;;;5017836;28;20187;-86
2021/01/09 06:36:23;;;;;;;0.10;0.10;;;1.70;99.90;;;;;;5013934;28;20189;-86
2021/01/09 06:38:52;;;;;;;0.30;0.30;;;1.60;99.90;;;;;;5018487;28;20607;-84
2021/01/09 06:41:19;;;;;;;0.67;0.43;;;1.70;99.90;;;;;;5003680;28;20282;-85
2021/01/09 06:43:47;;;;;;;0.40;0.40;;;1.80;99.90;;;;;;5009258;28;20203;-86
2021/01/09 06:46:27;;;;;;;0.37;0.37;;;1.90;99.90;;;;;;5009623;28;20635;-87
2021/01/09 06:48:52;;;;;;;1.47;1.37;;;1.90;99.90;;;;;;5015562;28;20191;-85
2021/01/09 06:51:38;;;;;;;0.70;0.43;;;1.90;99.90;;;;;;5013327;28;20234;-86
2021/01/09 06:54:15;;;;;;;0.47;0.47;;;1.80;99.90;;;;;;5012804;28;20191;-86
2021/01/09 06:56:43;;;;;;;0.53;0.53;;;1.70;99.90;;;;;;5005028;28;20213;-86
2021/01/09 06:59:08;;;;;;;0.10;0.10;;;1.60;99.90;;;;;;5009901;28;20180;-89
2021/01/09 07:01:36;;;;;;;0.73;0.43;;;1.60;99.90;;;;;;4996987;28;20211;-87
2021/01/09 07:04:02;;;;;;;0.30;0.30;;;1.60;99.90;;;;;;5000485;28;20218;-86
2021/01/09 07:07:00;;;;;;;1.40;0.57;;;1.60;99.90;;;;;;5006031;28;20187;-83
2021/01/09 07:09:28;;;;;;;1.43;0.90;;;1.60;99.90;;;;;;4999920;28;20218;-86
2021/01/09 07:11:55;;;;;;;0.43;0.43;;;1.50;99.90;;;;;;5002188;28;20262;-84
2021/01/09 07:14:21;;;;;;;0.47;0.47;;;1.40;99.90;;;;;;5007548;28;20184;-85
2021/01/09 07:16:47;;;;;;;0.10;0.10;;;1.40;99.90;;;;;;5008046;28;20184;-84
2021/01/09 07:19:14;;;;;;;0.67;0.67;;;1.50;99.90;;;;;;5006884;28;20183;-85
2021/01/09 07:21:40;;;;;;;0.60;0.60;;;1.50;99.90;;;;;;5010480;28;20222;-83
2021/01/09 07:24:09;;;;;;;0.10;0.10;;;1.50;99.90;;;;;;5005704;28;20207;-84
2021/01/09 07:26:39;;;;;;;2.00;0.73;;;1.50;99.90;;;;;;5011376;28;20268;-84
2021/01/09 07:29:05;;;;;;;1.10;0.40;;;1.50;99.90;;;;;;5006815;28;20230;-83
2021/01/09 07:31:31;;;;;;;0.60;0.40;;;1.60;99.90;;;;;;5011836;28;20203;-85
2021/01/09 07:33:59;;;;;;;0.57;0.57;;;1.50;99.90;;;;;;5009669;28;20266;-84
2021/01/09 07:36:28;;;;;;;0.43;0.40;;;1.40;99.90;;;;;;5006484;28;20187;-84
2021/01/09 07:39:01;;;;;;;0.50;0.50;;;1.40;99.90;;;;;;5009626;28;20593;-85
2021/01/09 07:41:37;;;;;;;0.30;0.30;;;1.40;99.90;;;;;;5026738;28;20294;-84
2021/01/09 07:44:13;;;;;;;0.77;0.53;;;1.40;99.90;;;;;;5004897;28;20273;-84
2021/01/09 07:47:00;;;;;;;0.23;0.23;;;1.40;99.90;;;;;;5004945;28;20183;-85
2021/01/09 07:49:31;;;;;;;0.27;0.27;;;1.50;99.90;;;;;;5010516;28;20197;-84
2021/01/09 07:51:59;;;;;;;0.53;0.47;;;1.40;99.90;;;;;;5005372;28;20200;-83
2021/01/09 07:54:43;;;;;;;1.13;0.30;;;1.20;99.90;;;;;;5008257;28;20191;-84
2021/01/09 07:57:18;;;;;;;0.63;0.57;;;1.20;99.90;;;;;;5000178;28;20186;-84
2021/01/09 07:59:56;;;;;;;0.20;0.20;;;1.20;99.90;;;;;;5001725;28;20278;-85
2021/01/09 08:02:26;;;;;;;0.30;0.13;;;1.20;99.90;;;;;;5010385;28;20253;-83
2021/01/09 08:05:13;;;;;;;0.17;0.17;;;1.10;99.90;;;;;;5012425;28;20670;-85
2021/01/09 08:07:44;;;;;;;0.57;0.50;;;1.10;99.90;;;;;;5007864;28;20223;-83
2021/01/09 08:10:13;;;;;;;0.47;0.20;;;1.10;99.90;;;;;;5003651;28;20186;-84
2021/01/09 08:12:41;;;;;;;0.10;0.10;;;1.20;99.90;;;;;;5007866;28;20301;-83
2021/01/09 08:15:07;;;;;;;1.20;0.40;;;1.30;99.90;;;;;;5004313;28;20179;-84
2021/01/09 08:17:32;;;;;;;0.70;0.70;;;1.20;99.90;;;;;;5005116;28;20194;-83
2021/01/09 08:20:06;;;;;;;0.67;0.67;;;1.30;99.90;;;;;;5005746;28;20191;-87
2021/01/09 08:22:32;;;;;;;2.37;0.80;;;1.40;99.90;;;;;;5003640;28;20233;-82
2021/01/09 08:25:11;;;;;;;1.00;0.33;;;1.50;99.90;;;;;;5005453;28;20179;-84
2021/01/09 08:27:45;;;;;;;2.70;2.53;;;1.60;99.90;;;;;;5007592;28;20610;-83
2021/01/09 08:30:12;;;;;;;1.23;0.30;;;1.80;99.90;;;;;;5003286;28;20191;-83
2021/01/09 08:32:38;;;;;;;0.63;0.63;;;1.90;99.90;;;;;;5001390;28;20652;-84
2021/01/09 08:35:04;;;;;;;0.83;0.20;;;1.70;99.90;;;;;;5005753;28;20197;-83
2021/01/09 08:37:30;;;;;;;0.67;0.60;;;1.70;99.90;;;;;;5004987;28;20198;-84
2021/01/09 08:39:56;;;;;;;0.63;0.37;;;1.80;99.90;;;;;;5011099;28;20215;-84
2021/01/09 08:42:22;;;;;;;1.07;0.60;;;1.90;99.90;;;;;;4999104;28;20227;-84
2021/01/09 08:44:48;;;;;;;0.60;0.60;;;2.10;99.90;;;;;;5006833;28;20334;-83
2021/01/09 08:47:18;;;;;;;1.90;0.70;;;2.10;99.90;;;;;;4997992;28;20187;-82
2021/01/09 08:49:46;;;;;;;0.73;0.63;;;2.20;99.90;;;;;;5002810;28;20214;-83
2021/01/09 08:52:15;;;;;;;0.30;0.30;;;2.10;99.90;;;;;;4995020;28;20335;-82
2021/01/09 08:54:43;;;;;;;0.57;0.57;;;2.10;99.90;;;;;;4996366;28;20203;-83
2021/01/09 08:57:12;;;;;;;0.63;0.63;;;1.90;99.90;;;;;;5010077;28;20191;-82
2021/01/09 08:59:39;;;;;;;0.47;0.33;;;2.10;99.90;;;;;;5004194;28;20198;-83
2021/01/09 09:02:08;;;;;;;0.97;0.47;;;2.10;99.90;;;;;;4998291;28;20298;-83
2021/01/09 09:04:40;;;;;;;0.23;0.23;;;2.30;99.90;;;;;;4998809;28;20234;-84
2021/01/09 09:07:08;;;;;;;0.43;0.43;;;2.40;99.90;;;;;;4994495;28;20192;-84
2021/01/09 09:09:37;;;;;;;0.73;0.70;;;2.60;99.90;;;;;;5007814;28;20194;-84
2021/01/09 09:12:03;;;;;;;0.33;0.33;;;2.50;99.90;;;;;;5002754;28;20208;-85
2021/01/09 09:14:29;;;;;;;0.10;0.10;;;2.50;99.90;;;;;;5005614;28;20229;-85
2021/01/09 09:17:04;;;;;;;0.70;0.27;;;2.90;99.90;;;;;;5003882;28;20191;-85
2021/01/09 09:19:38;;;;;;;2.00;0.43;;;2.90;99.90;;;;;;5008590;28;20339;-85
2021/01/09 09:22:04;;;;;;;0.30;0.30;;;3.00;99.90;;;;;;5008822;28;20222;-83
2021/01/09 09:24:44;;;;;;;0.13;0.13;;;3.40;99.90;;;;;;5008626;28;20273;-86
2021/01/09 09:27:30;;;;;;;3.30;0.37;;;3.30;99.90;;;;;;5003757;28;20187;-85
2021/01/09 09:30:09;;;;;;;0.10;0.10;;;3.30;99.90;;;;;;5004879;28;20183;-83
2021/01/09 09:32:35;;;;;;;0.10;0.10;;;3.40;99.90;;;;;;5001989;28;20887;-83
2021/01/09 09:35:27;;;;;;;0.83;0.60;;;3.40;99.90;;;;;;5014024;28;20542;-83
2021/01/09 09:37:55;;;;;;;0.53;0.40;;;3.40;99.90;;;;;;5011739;28;20191;-84
2021/01/09 09:40:29;;;;;;;0.40;0.27;;;3.40;99.90;;;;;;5009578;28;20187;-85
2021/01/09 09:43:09;;;;;;;1.90;0.53;;;3.70;99.90;;;;;;5010130;28;20214;-84
2021/01/09 09:45:35;;;;;;;0.60;0.60;;;3.80;99.90;;;;;;4995649;28;20183;-82
2021/01/09 09:48:00;;;;;;;0.37;0.37;;;4.20;99.90;;;;;;5005325;28;20193;-82
2021/01/09 09:50:26;;;;;;;0.47;0.47;;;4.20;99.90;;;;;;5002131;28;20188;-84
2021/01/09 09:52:59;;;;;;;0.90;0.43;;;4.10;99.90;;;;;;5002778;28;20620;-85
2021/01/09 09:55:25;;;;;;;0.27;0.27;;;3.90;99.90;;;;;;5014653;28;20208;-84
2021/01/09 09:58:07;;;;;;;1.10;0.40;;;4.40;99.90;;;;;;5002472;28;20739;-85
2021/01/09 10:00:41;;;;;;;0.40;0.40;;;4.70;99.90;;;;;;5007658;28;20227;-85
2021/01/09 10:03:07;;;;;;;0.67;0.63;;;4.50;99.90;;;;;;5002550;28;20219;-83
2021/01/09 10:05:32;;;;;;;0.50;0.50;;;4.60;99.90;;;;;;5010418;28;21645;-83
2021/01/09 10:08:14;;;;;;;4.30;0.47;;;5.00;99.90;;;;;;4996812;28;20185;-83
2021/01/09 10:10:41;;;;;;;0.40;0.40;;;5.30;99.90;;;;;;4995753;28;21732;-84
2021/01/09 10:13:07;;;;;;;0.10;0.10;;;5.50;99.90;;;;;;4998950;28;20205;-83
2021/01/09 10:15:32;;;;;;;1.03;0.30;;;5.60;99.90;;;;;;5007534;28;20199;-82
2021/01/09 10:18:00;;;;;;;0.60;0.40;;;4.60;99.90;;;;;;5008054;28;20335;-84
2021/01/09 10:20:26;;;;;;;0.67;0.67;;;4.90;99.90;;;;;;5005233;28;20342;-85
2021/01/09 10:22:52;;;;;;;0.17;0.17;;;4.70;99.90;;;;;;5017944;28;20697;-85
2021/01/09 10:25:18;;;;;;;1.10;0.40;;;5.00;99.90;;;;;;5009439;28;20245;-86
2021/01/09 10:27:43;;;;;;;0.37;0.37;;;4.80;99.90;;;;;;5011530;28;20173;-85
2021/01/09 10:30:10;;;;;;;0.20;0.20;;;5.10;99.90;;;;;;5020244;28;20180;-85
2021/01/09 10:32:35;;;;;;;0.63;0.63;;;5.00;99.90;;;;;;5030067;28;20763;-85
2021/01/09 10:35:01;;;;;;;0.20;0.20;;;4.80;99.90;;;;;;5016507;28;20236;-87
2021/01/09 10:37:27;;;;;;;0.70;0.70;;;4.50;99.90;;;;;;5026269;28;20613;-84
2021/01/09 10:39:53;;;;;;;0.37;0.20;;;4.70;99.90;;;;;;5010627;28;20186;-86
2021/01/09 10:42:18;;;;;;;0.80;0.20;;;4.50;99.90;;;;;;5011823;28;20211;-85
2021/01/09 10:44:44;;;;;;;0.97;0.20;;;4.30;99.90;;;;;;5014090;28;20232;-85
2021/01/09 10:47:10;;;;;;;0.60;0.50;;;3.90;99.90;;;;;;5008281;28;20615;-85
2021/01/09 10:49:35;;;;;;;1.10;0.73;;;3.50;99.90;;;;;;5001550;28;20271;-85
2021/01/09 10:52:01;;;;;;;0.40;0.40;;;3.30;99.90;;;;;;5004003;28;20291;-86
2021/01/09 10:54:26;;;;;;;0.40;0.40;;;3.20;99.90;;;;;;5014765;28;20230;-83
2021/01/09 10:56:52;;;;;;;0.87;0.40;;;3.10;99.90;;;;;;5006717;28;20679;-83
2021/01/09 10:59:17;;;;;;;0.93;0.50;;;3.10;99.90;;;;;;5014297;28;20206;-85
2021/01/09 11:01:43;;;;;;;0.20;0.20;;;3.00;99.90;;;;;;5004071;28;20222;-83
2021/01/09 11:04:08;;;;;;;0.30;0.30;;;3.10;99.90;;;;;;5013655;28;20227;-83
2021/01/09 11:06:35;;;;;;;0.10;0.10;;;3.40;99.90;;;;;;5011628;28;20194;-83
2021/01/09 11:09:03;;;;;;;0.50;0.47;;;3.80;99.90;;;;;;5010715;28;20210;-84
2021/01/09 11:11:29;;;;;;;0.00;0.00;;;4.30;99.90;;;;;;5002993;28;20208;-83
2021/01/09 11:13:54;;;;;;;0.40;0.40;;;4.30;99.90;;;;;;5005198;28;20570;-83
2021/01/09 11:16:21;;;;;;;0.30;0.30;;;4.50;99.90;;;;;;5003697;28;20207;-86
2021/01/09 11:18:48;;;;;;;1.70;0.53;;;4.30;99.90;;;;;;4998686;28;20195;-86
2021/01/09 11:21:14;;;;;;;0.30;0.30;;;4.00;99.90;;;;;;5012609;28;20211;-86
2021/01/09 11:23:42;;;;;;;0.10;0.10;;;3.80;99.90;;;;;;5003902;28;20215;-84
2021/01/09 11:26:09;;;;;;;0.43;0.43;;;3.60;99.90;;;;;;5011304;28;20266;-83
2021/01/09 11:28:34;;;;;;;0.20;0.20;;;3.50;99.90;;;;;;5008232;28;20231;-83
2021/01/09 11:31:00;;;;;;;1.20;0.30;;;3.60;99.90;;;;;;5001710;28;20188;-82
2021/01/09 11:33:25;;;;;;;0.13;0.10;;;3.60;99.90;;;;;;4998891;28;20362;-82
2021/01/09 11:35:51;;;;;;;0.37;0.37;;;3.60;99.90;;;;;;5003266;28;20691;-81
2021/01/09 11:38:16;;;;;;;0.23;0.23;;;3.50;99.90;;;;;;5004874;28;20869;-82
2021/01/09 11:40:42;;;;;;;0.47;0.43;;;3.40;99.90;;;;;;5012797;28;20205;-82
2021/01/09 11:43:07;;;;;;;0.23;0.23;;;3.50;99.90;;;;;;4999670;28;20247;-82
2021/01/09 11:45:33;;;;;;;0.60;0.43;;;3.60;99.90;;;;;;4995936;28;20188;-82
2021/01/09 11:47:58;;;;;;;0.37;0.30;;;3.50;99.90;;;;;;4995180;28;20183;-82
2021/01/09 11:50:24;;;;;;;0.10;0.10;;;3.60;99.90;;;;;;5011060;28;20237;-82
2021/01/09 11:52:50;;;;;;;0.33;0.30;;;3.80;99.90;;;;;;5002759;28;20215;-82
2021/01/09 11:55:15;;;;;;;0.10;0.10;;;3.90;99.90;;;;;;4996707;28;20190;-82
2021/01/09 11:57:41;;;;;;;0.20;0.20;;;3.90;99.90;;;;;;4995392;28;20589;-82
2021/01/09 12:00:10;;;;;;;0.47;0.47;;;3.80;99.90;;;;;;5008590;28;20605;-82
2021/01/09 12:02:39;;;;;;;0.20;0.20;;;3.60;99.90;;;;;;4998300;28;20223;-82
2021/01/09 12:05:07;;;;;;;0.10;0.10;;;3.70;99.90;;;;;;5006070;28;20206;-81
2021/01/09 12:07:32;;;;;;;0.40;0.30;;;3.60;99.90;;;;;;4997952;28;20191;-81
2021/01/09 12:09:58;;;;;;;0.30;0.30;;;3.60;99.90;;;;;;4996751;28;20247;-82
2021/01/09 12:12:24;;;;;;;1.80;1.70;;;3.40;99.90;;;;;;5007681;28;20584;-82
2021/01/09 12:14:50;;;;;;;0.77;0.77;;;3.40;99.90;;;;;;4994894;28;20198;-81
2021/01/09 12:17:15;;;;;;;0.20;0.20;;;3.40;99.90;;;;;;5010479;28;20491;-82
2021/01/09 12:19:41;;;;;;;0.40;0.40;;;3.40;99.90;;;;;;5012974;28;20214;-82
2021/01/09 12:22:06;;;;;;;0.10;0.10;;;3.20;99.90;;;;;;5011411;28;20215;-83
2021/01/09 12:24:32;;;;;;;0.30;0.30;;;3.20;99.90;;;;;;4994472;28;20219;-81
2021/01/09 12:26:58;;;;;;;0.10;0.10;;;3.30;99.90;;;;;;4995197;28;20194;-81
2021/01/09 12:29:23;;;;;;;0.10;0.10;;;3.20;99.90;;;;;;5012058;28;20184;-82
2021/01/09 12:31:49;;;;;;;0.20;0.20;;;3.10;99.90;;;;;;5013446;28;20195;-81
2021/01/09 12:34:16;;;;;;;0.33;0.33;;;3.00;99.90;;;;;;5009750;28;20688;-82
2021/01/09 12:36:42;;;;;;;0.70;0.70;;;3.10;99.90;;;;;;4999220;28;20606;-82
2021/01/09 12:39:08;;;;;;;0.17;0.17;;;3.20;99.90;;;;;;5006597;28;20242;-81
2021/01/09 12:41:38;;;;;;;0.20;0.20;;;3.20;99.90;;;;;;5002766;28;20202;-81
2021/01/09 12:44:07;;;;;;;0.00;0.00;;;3.00;99.90;;;;;;4994495;28;20214;-82
2021/01/09 12:46:42;;;;;;;0.20;0.20;;;3.10;99.90;;;;;;4999010;28;20194;-82
2021/01/09 12:49:14;;;;;;;0.20;0.20;;;3.10;99.90;;;;;;5004475;28;20250;-82
2021/01/09 12:51:40;;;;;;;0.40;0.40;;;3.10;99.90;;;;;;5016199;28;20204;-82
2021/01/09 12:54:06;;;;;;;0.20;0.10;;;3.00;99.90;;;;;;5005670;28;20557;-82
2021/01/09 12:56:33;;;;;;;0.20;0.20;;;3.00;99.90;;;;;;5002689;28;20241;-82
2021/01/09 12:59:04;;;;;;;0.10;0.10;;;3.00;99.90;;;;;;5004814;28;20184;-82
2021/01/09 13:01:50;;;;;;;0.33;0.13;;;2.90;99.90;;;;;;5005507;28;20238;-82
2021/01/09 13:04:20;;;;;;;0.30;0.20;;;3.00;99.90;;;;;;5004840;28;20576;-81